sensor_id;sensor_type;location;lat;lon;timestamp;P1;durP1;ratioP1;P2;durP2;ratioP2
32469;SDS011;18925;48.356;10.864;2022-12-28T00:00:16;35.83;;;18.40;;
32469;SDS011;18925;48.356;10.864;2022-12-28T00:00:47;29.42;;;17.70;;
32469;SDS011;18925;48.356;10.864;2022-12-28T00:01:51;30.70;;;18.15;;
32469;SDS011;18925;48.356;10.864;2022-12-28T00:02:22;32.85;;;18.10;;
32469;SDS011;18925;48.356;10.864;2022-12-28T00:02:55;28.58;;;17.13;;
32469;SDS011;18925;48.356;10.864;2022-12-28T00:03:26;28.80;;;17.02;;
32469;SDS011;18925;48.356;10.864;2022-12-28T00:03:57;37.17;;;17.48;;
32469;SDS011;18925;48.356;10.864;2022-12-28T00:04:29;34.97;;;17.88;;
32469;SDS011;18925;48.356;10.864;2022-12-28T00:05:00;30.63;;;16.60;;
32469;SDS011;18925;48.356;10.864;2022-12-28T00:05:31;25.52;;;16.40;;
32469;SDS011;18925;48.356;10.864;2022-12-28T00:06:01;28.85;;;16.75;;
32469;SDS011;18925;48.356;10.864;2022-12-28T00:06:33;34.95;;;17.52;;
32469;SDS011;18925;48.356;10.864;2022-12-28T00:07:03;29.38;;;18.25;;
32469;SDS011;18925;48.356;10.864;2022-12-28T00:07:34;32.72;;;16.42;;
32469;SDS011;18925;48.356;10.864;2022-12-28T00:08:05;29.60;;;16.83;;
32469;SDS011;18925;48.356;10.864;2022-12-28T00:08:35;33.20;;;17.10;;
32469;SDS011;18925;48.356;10.864;2022-12-28T00:09:07;34.10;;;17.30;;
32469;SDS011;18925;48.356;10.864;2022-12-28T00:09:39;29.05;;;17.55;;
32469;SDS011;18925;48.356;10.864;2022-12-28T00:10:10;29.52;;;17.52;;
32469;SDS011;18925;48.356;10.864;2022-12-28T00:10:41;31.63;;;18.05;;
32469;SDS011;18925;48.356;10.864;2022-12-28T00:11:15;31.00;;;19.02;;
32469;SDS011;18925;48.356;10.864;2022-12-28T00:11:48;35.83;;;20.50;;
32469;SDS011;18925;48.356;10.864;2022-12-28T00:12:18;35.22;;;18.17;;
32469;SDS011;18925;48.356;10.864;2022-12-28T00:12:50;35.28;;;19.98;;
32469;SDS011;18925;48.356;10.864;2022-12-28T00:13:20;32.42;;;18.88;;
32469;SDS011;18925;48.356;10.864;2022-12-28T00:13:51;35.85;;;19.00;;
32469;SDS011;18925;48.356;10.864;2022-12-28T00:14:22;30.05;;;19.30;;
32469;SDS011;18925;48.356;10.864;2022-12-28T00:14:54;35.67;;;20.88;;
32469;SDS011;18925;48.356;10.864;2022-12-28T00:15:24;39.63;;;19.98;;
32469;SDS011;18925;48.356;10.864;2022-12-28T00:15:55;38.00;;;18.88;;
32469;SDS011;18925;48.356;10.864;2022-12-28T00:16:30;33.25;;;18.70;;
32469;SDS011;18925;48.356;10.864;2022-12-28T00:17:05;35.10;;;20.80;;
32469;SDS011;18925;48.356;10.864;2022-12-28T00:17:36;30.88;;;19.50;;
32469;SDS011;18925;48.356;10.864;2022-12-28T00:18:06;28.83;;;17.08;;
32469;SDS011;18925;48.356;10.864;2022-12-28T00:18:37;29.35;;;17.25;;
32469;SDS011;18925;48.356;10.864;2022-12-28T00:19:14;31.42;;;16.92;;
32469;SDS011;18925;48.356;10.864;2022-12-28T00:19:45;33.75;;;19.90;;
32469;SDS011;18925;48.356;10.864;2022-12-28T00:20:16;32.83;;;20.55;;
32469;SDS011;18925;48.356;10.864;2022-12-28T00:20:56;29.88;;;17.02;;
32469;SDS011;18925;48.356;10.864;2022-12-28T00:21:28;30.77;;;18.30;;
32469;SDS011;18925;48.356;10.864;2022-12-28T00:21:59;32.70;;;18.98;;
32469;SDS011;18925;48.356;10.864;2022-12-28T00:22:29;30.00;;;18.30;;
32469;SDS011;18925;48.356;10.864;2022-12-28T00:23:03;29.75;;;16.92;;
32469;SDS011;18925;48.356;10.864;2022-12-28T00:23:35;32.95;;;18.98;;
32469;SDS011;18925;48.356;10.864;2022-12-28T00:24:05;28.98;;;16.20;;
32469;SDS011;18925;48.356;10.864;2022-12-28T00:24:37;32.63;;;17.92;;
32469;SDS011;18925;48.356;10.864;2022-12-28T00:25:07;27.20;;;17.40;;
32469;SDS011;18925;48.356;10.864;2022-12-28T00:25:38;31.33;;;17.02;;
32469;SDS011;18925;48.356;10.864;2022-12-28T00:26:12;29.40;;;17.42;;
32469;SDS011;18925;48.356;10.864;2022-12-28T00:26:43;29.48;;;17.00;;
32469;SDS011;18925;48.356;10.864;2022-12-28T00:27:13;24.80;;;15.73;;
32469;SDS011;18925;48.356;10.864;2022-12-28T00:27:44;31.27;;;17.42;;
32469;SDS011;18925;48.356;10.864;2022-12-28T00:28:15;23.05;;;16.00;;
32469;SDS011;18925;48.356;10.864;2022-12-28T00:28:46;38.63;;;17.27;;
32469;SDS011;18925;48.356;10.864;2022-12-28T00:29:17;29.95;;;17.58;;
32469;SDS011;18925;48.356;10.864;2022-12-28T00:29:48;25.55;;;15.32;;
32469;SDS011;18925;48.356;10.864;2022-12-28T00:30:18;23.48;;;16.85;;
32469;SDS011;18925;48.356;10.864;2022-12-28T00:30:49;29.40;;;18.23;;
32469;SDS011;18925;48.356;10.864;2022-12-28T00:31:20;28.50;;;16.38;;
32469;SDS011;18925;48.356;10.864;2022-12-28T00:31:50;33.10;;;17.95;;
32469;SDS011;18925;48.356;10.864;2022-12-28T00:32:21;28.30;;;16.13;;
32469;SDS011;18925;48.356;10.864;2022-12-28T00:32:52;37.83;;;16.70;;
32469;SDS011;18925;48.356;10.864;2022-12-28T00:33:22;29.90;;;16.98;;
32469;SDS011;18925;48.356;10.864;2022-12-28T00:33:53;24.80;;;14.98;;
32469;SDS011;18925;48.356;10.864;2022-12-28T00:34:24;28.80;;;16.05;;
32469;SDS011;18925;48.356;10.864;2022-12-28T00:34:54;28.92;;;16.05;;
32469;SDS011;18925;48.356;10.864;2022-12-28T00:35:25;23.55;;;14.10;;
32469;SDS011;18925;48.356;10.864;2022-12-28T00:35:56;24.25;;;15.55;;
32469;SDS011;18925;48.356;10.864;2022-12-28T00:36:29;28.08;;;15.93;;
32469;SDS011;18925;48.356;10.864;2022-12-28T00:37:01;27.02;;;14.82;;
32469;SDS011;18925;48.356;10.864;2022-12-28T00:37:31;25.13;;;14.23;;
32469;SDS011;18925;48.356;10.864;2022-12-28T00:38:02;23.40;;;14.10;;
32469;SDS011;18925;48.356;10.864;2022-12-28T00:38:33;24.30;;;14.27;;
32469;SDS011;18925;48.356;10.864;2022-12-28T00:39:07;25.85;;;14.38;;
32469;SDS011;18925;48.356;10.864;2022-12-28T00:39:38;29.58;;;14.95;;
32469;SDS011;18925;48.356;10.864;2022-12-28T00:40:09;26.77;;;13.93;;
32469;SDS011;18925;48.356;10.864;2022-12-28T00:40:40;24.73;;;14.43;;
32469;SDS011;18925;48.356;10.864;2022-12-28T00:41:12;22.15;;;13.57;;
32469;SDS011;18925;48.356;10.864;2022-12-28T00:41:42;28.35;;;14.13;;
32469;SDS011;18925;48.356;10.864;2022-12-28T00:42:13;25.60;;;13.93;;
32469;SDS011;18925;48.356;10.864;2022-12-28T00:42:44;23.88;;;14.35;;
32469;SDS011;18925;48.356;10.864;2022-12-28T00:43:14;24.90;;;13.18;;
32469;SDS011;18925;48.356;10.864;2022-12-28T00:43:45;24.40;;;13.82;;
32469;SDS011;18925;48.356;10.864;2022-12-28T00:44:16;23.63;;;14.05;;
32469;SDS011;18925;48.356;10.864;2022-12-28T00:44:46;27.42;;;15.18;;
32469;SDS011;18925;48.356;10.864;2022-12-28T00:45:17;18.98;;;13.75;;
32469;SDS011;18925;48.356;10.864;2022-12-28T00:45:48;30.65;;;16.83;;
32469;SDS011;18925;48.356;10.864;2022-12-28T00:46:18;28.45;;;15.73;;
32469;SDS011;18925;48.356;10.864;2022-12-28T00:46:49;25.23;;;14.32;;
32469;SDS011;18925;48.356;10.864;2022-12-28T00:47:20;27.40;;;15.38;;
32469;SDS011;18925;48.356;10.864;2022-12-28T00:47:50;26.17;;;15.02;;
32469;SDS011;18925;48.356;10.864;2022-12-28T00:48:21;24.27;;;14.40;;
32469;SDS011;18925;48.356;10.864;2022-12-28T00:48:52;21.25;;;14.25;;
32469;SDS011;18925;48.356;10.864;2022-12-28T00:49:22;24.48;;;13.82;;
32469;SDS011;18925;48.356;10.864;2022-12-28T00:49:53;24.15;;;13.70;;
32469;SDS011;18925;48.356;10.864;2022-12-28T00:50:24;25.38;;;15.02;;
32469;SDS011;18925;48.356;10.864;2022-12-28T00:51:04;23.95;;;14.88;;
32469;SDS011;18925;48.356;10.864;2022-12-28T00:51:36;26.98;;;15.50;;
32469;SDS011;18925;48.356;10.864;2022-12-28T00:52:07;26.08;;;15.10;;
32469;SDS011;18925;48.356;10.864;2022-12-28T00:52:37;24.38;;;15.90;;
32469;SDS011;18925;48.356;10.864;2022-12-28T00:53:08;23.48;;;15.05;;
32469;SDS011;18925;48.356;10.864;2022-12-28T00:53:40;24.30;;;14.63;;
32469;SDS011;18925;48.356;10.864;2022-12-28T00:54:11;26.75;;;14.85;;
32469;SDS011;18925;48.356;10.864;2022-12-28T00:54:42;28.30;;;15.60;;
32469;SDS011;18925;48.356;10.864;2022-12-28T00:55:13;25.40;;;14.00;;
32469;SDS011;18925;48.356;10.864;2022-12-28T00:55:43;30.65;;;14.68;;
32469;SDS011;18925;48.356;10.864;2022-12-28T00:56:15;24.35;;;14.70;;
32469;SDS011;18925;48.356;10.864;2022-12-28T00:56:48;29.65;;;16.05;;
32469;SDS011;18925;48.356;10.864;2022-12-28T00:57:18;27.73;;;14.75;;
32469;SDS011;18925;48.356;10.864;2022-12-28T00:57:49;27.33;;;15.23;;
32469;SDS011;18925;48.356;10.864;2022-12-28T00:58:19;25.23;;;15.35;;
32469;SDS011;18925;48.356;10.864;2022-12-28T00:58:54;28.45;;;16.60;;
32469;SDS011;18925;48.356;10.864;2022-12-28T00:59:25;26.83;;;16.60;;
32469;SDS011;18925;48.356;10.864;2022-12-28T00:59:56;30.63;;;15.48;;
32469;SDS011;18925;48.356;10.864;2022-12-28T01:00:27;24.17;;;16.40;;
32469;SDS011;18925;48.356;10.864;2022-12-28T01:00:58;26.27;;;14.10;;
32469;SDS011;18925;48.356;10.864;2022-12-28T01:01:29;26.38;;;16.15;;
32469;SDS011;18925;48.356;10.864;2022-12-28T01:02:00;25.25;;;13.95;;
32469;SDS011;18925;48.356;10.864;2022-12-28T01:02:30;20.95;;;13.05;;
32469;SDS011;18925;48.356;10.864;2022-12-28T01:03:01;19.60;;;13.85;;
32469;SDS011;18925;48.356;10.864;2022-12-28T01:03:32;27.13;;;14.15;;
32469;SDS011;18925;48.356;10.864;2022-12-28T01:04:03;24.52;;;14.30;;
32469;SDS011;18925;48.356;10.864;2022-12-28T01:04:34;22.38;;;14.18;;
32469;SDS011;18925;48.356;10.864;2022-12-28T01:05:04;30.65;;;14.48;;
32469;SDS011;18925;48.356;10.864;2022-12-28T01:05:37;20.77;;;13.13;;
32469;SDS011;18925;48.356;10.864;2022-12-28T01:06:09;23.08;;;14.27;;
32469;SDS011;18925;48.356;10.864;2022-12-28T01:06:42;25.23;;;13.10;;
32469;SDS011;18925;48.356;10.864;2022-12-28T01:07:12;23.00;;;13.55;;
32469;SDS011;18925;48.356;10.864;2022-12-28T01:07:43;22.38;;;13.55;;
32469;SDS011;18925;48.356;10.864;2022-12-28T01:08:14;26.63;;;14.85;;
32469;SDS011;18925;48.356;10.864;2022-12-28T01:08:44;27.15;;;14.27;;
32469;SDS011;18925;48.356;10.864;2022-12-28T01:09:15;19.42;;;12.48;;
32469;SDS011;18925;48.356;10.864;2022-12-28T01:09:46;19.67;;;13.07;;
32469;SDS011;18925;48.356;10.864;2022-12-28T01:10:17;22.25;;;14.52;;
32469;SDS011;18925;48.356;10.864;2022-12-28T01:10:48;27.17;;;14.35;;
32469;SDS011;18925;48.356;10.864;2022-12-28T01:11:20;21.17;;;13.27;;
32469;SDS011;18925;48.356;10.864;2022-12-28T01:11:52;23.75;;;13.98;;
32469;SDS011;18925;48.356;10.864;2022-12-28T01:12:23;21.55;;;13.30;;
32469;SDS011;18925;48.356;10.864;2022-12-28T01:12:53;21.63;;;13.32;;
32469;SDS011;18925;48.356;10.864;2022-12-28T01:13:24;26.77;;;14.43;;
32469;SDS011;18925;48.356;10.864;2022-12-28T01:13:56;23.70;;;13.35;;
32469;SDS011;18925;48.356;10.864;2022-12-28T01:14:27;22.33;;;12.65;;
32469;SDS011;18925;48.356;10.864;2022-12-28T01:14:58;32.20;;;15.05;;
32469;SDS011;18925;48.356;10.864;2022-12-28T01:15:29;23.23;;;12.70;;
32469;SDS011;18925;48.356;10.864;2022-12-28T01:15:59;21.55;;;13.38;;
32469;SDS011;18925;48.356;10.864;2022-12-28T01:16:33;24.40;;;13.25;;
32469;SDS011;18925;48.356;10.864;2022-12-28T01:17:05;19.30;;;12.15;;
32469;SDS011;18925;48.356;10.864;2022-12-28T01:17:35;26.88;;;14.23;;
32469;SDS011;18925;48.356;10.864;2022-12-28T01:18:06;22.75;;;12.98;;
32469;SDS011;18925;48.356;10.864;2022-12-28T01:18:37;20.77;;;13.40;;
32469;SDS011;18925;48.356;10.864;2022-12-28T01:19:08;25.58;;;13.80;;
32469;SDS011;18925;48.356;10.864;2022-12-28T01:19:43;21.75;;;12.30;;
32469;SDS011;18925;48.356;10.864;2022-12-28T01:20:14;20.65;;;13.45;;
32469;SDS011;18925;48.356;10.864;2022-12-28T01:20:45;24.33;;;13.65;;
32469;SDS011;18925;48.356;10.864;2022-12-28T01:21:17;22.63;;;13.70;;
32469;SDS011;18925;48.356;10.864;2022-12-28T01:21:49;19.00;;;12.40;;
32469;SDS011;18925;48.356;10.864;2022-12-28T01:22:20;25.83;;;13.75;;
32469;SDS011;18925;48.356;10.864;2022-12-28T01:22:51;24.67;;;12.63;;
32469;SDS011;18925;48.356;10.864;2022-12-28T01:23:22;25.95;;;13.52;;
32469;SDS011;18925;48.356;10.864;2022-12-28T01:23:53;29.25;;;15.55;;
32469;SDS011;18925;48.356;10.864;2022-12-28T01:24:25;23.77;;;13.70;;
32469;SDS011;18925;48.356;10.864;2022-12-28T01:24:56;19.35;;;13.25;;
32469;SDS011;18925;48.356;10.864;2022-12-28T01:25:26;20.63;;;12.75;;
32469;SDS011;18925;48.356;10.864;2022-12-28T01:26:00;23.17;;;13.73;;
32469;SDS011;18925;48.356;10.864;2022-12-28T01:26:31;20.27;;;12.13;;
32469;SDS011;18925;48.356;10.864;2022-12-28T01:27:02;24.25;;;12.80;;
32469;SDS011;18925;48.356;10.864;2022-12-28T01:27:33;24.08;;;12.70;;
32469;SDS011;18925;48.356;10.864;2022-12-28T01:28:04;20.60;;;12.05;;
32469;SDS011;18925;48.356;10.864;2022-12-28T01:28:34;20.20;;;12.43;;
32469;SDS011;18925;48.356;10.864;2022-12-28T01:29:05;21.58;;;12.07;;
32469;SDS011;18925;48.356;10.864;2022-12-28T01:29:36;21.00;;;12.77;;
32469;SDS011;18925;48.356;10.864;2022-12-28T01:30:06;23.65;;;13.32;;
32469;SDS011;18925;48.356;10.864;2022-12-28T01:30:37;23.45;;;13.30;;
32469;SDS011;18925;48.356;10.864;2022-12-28T01:31:12;22.95;;;11.85;;
32469;SDS011;18925;48.356;10.864;2022-12-28T01:31:44;23.30;;;13.35;;
32469;SDS011;18925;48.356;10.864;2022-12-28T01:32:15;19.35;;;11.63;;
32469;SDS011;18925;48.356;10.864;2022-12-28T01:32:46;22.23;;;12.65;;
32469;SDS011;18925;48.356;10.864;2022-12-28T01:33:16;23.15;;;12.40;;
32469;SDS011;18925;48.356;10.864;2022-12-28T01:33:47;18.60;;;11.35;;
32469;SDS011;18925;48.356;10.864;2022-12-28T01:34:18;21.92;;;12.77;;
32469;SDS011;18925;48.356;10.864;2022-12-28T01:34:48;22.13;;;12.50;;
32469;SDS011;18925;48.356;10.864;2022-12-28T01:35:19;19.42;;;11.55;;
32469;SDS011;18925;48.356;10.864;2022-12-28T01:35:49;19.35;;;12.35;;
32469;SDS011;18925;48.356;10.864;2022-12-28T01:36:24;20.52;;;11.68;;
32469;SDS011;18925;48.356;10.864;2022-12-28T01:36:57;24.95;;;11.75;;
32469;SDS011;18925;48.356;10.864;2022-12-28T01:37:27;20.02;;;11.98;;
32469;SDS011;18925;48.356;10.864;2022-12-28T01:37:58;22.40;;;11.85;;
32469;SDS011;18925;48.356;10.864;2022-12-28T01:38:29;19.30;;;11.63;;
32469;SDS011;18925;48.356;10.864;2022-12-28T01:39:00;18.30;;;12.32;;
32469;SDS011;18925;48.356;10.864;2022-12-28T01:39:33;24.05;;;12.25;;
32469;SDS011;18925;48.356;10.864;2022-12-28T01:40:04;21.85;;;12.00;;
32469;SDS011;18925;48.356;10.864;2022-12-28T01:40:35;19.73;;;11.93;;
32469;SDS011;18925;48.356;10.864;2022-12-28T01:41:09;18.23;;;11.77;;
32469;SDS011;18925;48.356;10.864;2022-12-28T01:41:44;19.15;;;12.40;;
32469;SDS011;18925;48.356;10.864;2022-12-28T01:42:16;20.63;;;12.25;;
32469;SDS011;18925;48.356;10.864;2022-12-28T01:42:48;16.17;;;11.60;;
32469;SDS011;18925;48.356;10.864;2022-12-28T01:43:19;20.92;;;12.77;;
32469;SDS011;18925;48.356;10.864;2022-12-28T01:44:53;17.67;;;10.65;;
32469;SDS011;18925;48.356;10.864;2022-12-28T01:45:24;21.63;;;12.90;;
32469;SDS011;18925;48.356;10.864;2022-12-28T01:45:55;22.98;;;12.63;;
32469;SDS011;18925;48.356;10.864;2022-12-28T01:47:20;22.92;;;11.75;;
32469;SDS011;18925;48.356;10.864;2022-12-28T01:47:57;19.73;;;11.85;;
32469;SDS011;18925;48.356;10.864;2022-12-28T01:48:27;17.63;;;11.27;;
32469;SDS011;18925;48.356;10.864;2022-12-28T01:49:00;19.33;;;11.98;;
32469;SDS011;18925;48.356;10.864;2022-12-28T01:49:44;22.10;;;12.45;;
32469;SDS011;18925;48.356;10.864;2022-12-28T01:50:21;19.05;;;11.52;;
32469;SDS011;18925;48.356;10.864;2022-12-28T01:50:56;22.80;;;12.50;;
32469;SDS011;18925;48.356;10.864;2022-12-28T01:51:28;23.13;;;11.75;;
32469;SDS011;18925;48.356;10.864;2022-12-28T01:52:59;21.25;;;11.80;;
32469;SDS011;18925;48.356;10.864;2022-12-28T01:53:33;21.05;;;12.05;;
32469;SDS011;18925;48.356;10.864;2022-12-28T01:54:04;26.00;;;11.60;;
32469;SDS011;18925;48.356;10.864;2022-12-28T01:54:36;17.88;;;11.27;;
32469;SDS011;18925;48.356;10.864;2022-12-28T01:55:32;21.27;;;10.98;;
32469;SDS011;18925;48.356;10.864;2022-12-28T01:56:04;19.70;;;11.07;;
32469;SDS011;18925;48.356;10.864;2022-12-28T01:56:35;26.17;;;11.50;;
32469;SDS011;18925;48.356;10.864;2022-12-28T01:57:06;17.75;;;11.18;;
32469;SDS011;18925;48.356;10.864;2022-12-28T01:57:39;20.90;;;12.18;;
32469;SDS011;18925;48.356;10.864;2022-12-28T01:58:19;19.85;;;11.90;;
32469;SDS011;18925;48.356;10.864;2022-12-28T01:58:54;18.92;;;11.73;;
32469;SDS011;18925;48.356;10.864;2022-12-28T01:59:26;21.35;;;11.60;;
32469;SDS011;18925;48.356;10.864;2022-12-28T02:00:02;19.50;;;11.70;;
32469;SDS011;18925;48.356;10.864;2022-12-28T02:00:38;16.33;;;10.73;;
32469;SDS011;18925;48.356;10.864;2022-12-28T02:01:09;18.02;;;11.60;;
32469;SDS011;18925;48.356;10.864;2022-12-28T02:01:40;16.63;;;11.70;;
32469;SDS011;18925;48.356;10.864;2022-12-28T02:02:11;18.25;;;10.85;;
32469;SDS011;18925;48.356;10.864;2022-12-28T02:02:47;21.13;;;11.48;;
32469;SDS011;18925;48.356;10.864;2022-12-28T02:03:22;20.63;;;11.13;;
32469;SDS011;18925;48.356;10.864;2022-12-28T02:03:56;22.10;;;11.40;;
32469;SDS011;18925;48.356;10.864;2022-12-28T02:04:27;17.95;;;10.95;;
32469;SDS011;18925;48.356;10.864;2022-12-28T02:04:58;21.67;;;11.40;;
32469;SDS011;18925;48.356;10.864;2022-12-28T02:05:33;17.38;;;11.45;;
32469;SDS011;18925;48.356;10.864;2022-12-28T02:06:09;17.85;;;11.18;;
32469;SDS011;18925;48.356;10.864;2022-12-28T02:06:41;17.75;;;11.13;;
32469;SDS011;18925;48.356;10.864;2022-12-28T02:07:13;18.48;;;11.43;;
32469;SDS011;18925;48.356;10.864;2022-12-28T02:08:30;16.67;;;10.98;;
32469;SDS011;18925;48.356;10.864;2022-12-28T02:09:14;17.83;;;11.63;;
32469;SDS011;18925;48.356;10.864;2022-12-28T02:09:52;20.65;;;10.65;;
32469;SDS011;18925;48.356;10.864;2022-12-28T02:10:23;17.80;;;11.07;;
32469;SDS011;18925;48.356;10.864;2022-12-28T02:10:55;17.30;;;10.93;;
32469;SDS011;18925;48.356;10.864;2022-12-28T02:11:26;22.52;;;12.70;;
32469;SDS011;18925;48.356;10.864;2022-12-28T02:11:57;17.35;;;11.73;;
32469;SDS011;18925;48.356;10.864;2022-12-28T02:12:29;19.38;;;11.35;;
32469;SDS011;18925;48.356;10.864;2022-12-28T02:13:01;19.20;;;11.48;;
32469;SDS011;18925;48.356;10.864;2022-12-28T02:13:33;15.90;;;10.95;;
32469;SDS011;18925;48.356;10.864;2022-12-28T02:14:04;17.90;;;10.73;;
32469;SDS011;18925;48.356;10.864;2022-12-28T02:14:36;18.35;;;11.43;;
32469;SDS011;18925;48.356;10.864;2022-12-28T02:15:09;17.80;;;11.02;;
32469;SDS011;18925;48.356;10.864;2022-12-28T02:15:40;21.38;;;12.25;;
32469;SDS011;18925;48.356;10.864;2022-12-28T02:16:11;17.73;;;12.25;;
32469;SDS011;18925;48.356;10.864;2022-12-28T02:16:41;17.77;;;11.43;;
32469;SDS011;18925;48.356;10.864;2022-12-28T02:17:12;19.13;;;10.60;;
32469;SDS011;18925;48.356;10.864;2022-12-28T02:17:43;15.48;;;11.02;;
32469;SDS011;18925;48.356;10.864;2022-12-28T02:18:14;18.90;;;12.38;;
32469;SDS011;18925;48.356;10.864;2022-12-28T02:18:47;14.23;;;10.77;;
32469;SDS011;18925;48.356;10.864;2022-12-28T02:19:20;20.63;;;10.15;;
32469;SDS011;18925;48.356;10.864;2022-12-28T02:19:59;17.45;;;11.75;;
32469;SDS011;18925;48.356;10.864;2022-12-28T02:23:11;21.08;;;11.07;;
32469;SDS011;18925;48.356;10.864;2022-12-28T02:28:54;18.58;;;12.00;;
32469;SDS011;18925;48.356;10.864;2022-12-28T02:30:05;16.80;;;10.18;;
32469;SDS011;18925;48.356;10.864;2022-12-28T02:30:42;18.55;;;11.05;;
32469;SDS011;18925;48.356;10.864;2022-12-28T02:31:23;17.98;;;11.05;;
32469;SDS011;18925;48.356;10.864;2022-12-28T02:32:14;19.02;;;11.00;;
32469;SDS011;18925;48.356;10.864;2022-12-28T02:33:09;19.50;;;11.27;;
32469;SDS011;18925;48.356;10.864;2022-12-28T02:33:53;18.30;;;10.70;;
32469;SDS011;18925;48.356;10.864;2022-12-28T02:34:35;15.50;;;10.07;;
32469;SDS011;18925;48.356;10.864;2022-12-28T02:35:20;22.25;;;11.52;;
32469;SDS011;18925;48.356;10.864;2022-12-28T02:36:00;18.30;;;10.35;;
32469;SDS011;18925;48.356;10.864;2022-12-28T02:36:42;17.80;;;10.70;;
32469;SDS011;18925;48.356;10.864;2022-12-28T02:37:20;15.88;;;9.98;;
32469;SDS011;18925;48.356;10.864;2022-12-28T02:37:55;16.75;;;9.75;;
32469;SDS011;18925;48.356;10.864;2022-12-28T02:38:38;19.90;;;10.57;;
32469;SDS011;18925;48.356;10.864;2022-12-28T02:39:15;18.73;;;10.32;;
32469;SDS011;18925;48.356;10.864;2022-12-28T02:39:51;15.73;;;10.85;;
32469;SDS011;18925;48.356;10.864;2022-12-28T02:40:26;21.15;;;10.90;;
32469;SDS011;18925;48.356;10.864;2022-12-28T02:41:14;22.05;;;10.63;;
32469;SDS011;18925;48.356;10.864;2022-12-28T02:41:47;18.52;;;10.32;;
32469;SDS011;18925;48.356;10.864;2022-12-28T02:42:21;17.83;;;10.05;;
32469;SDS011;18925;48.356;10.864;2022-12-28T02:42:53;17.45;;;10.43;;
32469;SDS011;18925;48.356;10.864;2022-12-28T02:43:24;17.88;;;10.10;;
32469;SDS011;18925;48.356;10.864;2022-12-28T02:43:55;19.20;;;9.82;;
32469;SDS011;18925;48.356;10.864;2022-12-28T02:44:28;14.07;;;10.07;;
32469;SDS011;18925;48.356;10.864;2022-12-28T02:45:36;16.27;;;9.43;;
32469;SDS011;18925;48.356;10.864;2022-12-28T02:46:43;15.32;;;9.60;;
32469;SDS011;18925;48.356;10.864;2022-12-28T02:47:32;17.90;;;9.77;;
32469;SDS011;18925;48.356;10.864;2022-12-28T02:48:22;16.75;;;9.38;;
32469;SDS011;18925;48.356;10.864;2022-12-28T02:50:13;15.70;;;9.75;;
32469;SDS011;18925;48.356;10.864;2022-12-28T02:50:56;16.02;;;10.35;;
32469;SDS011;18925;48.356;10.864;2022-12-28T02:54:51;18.67;;;9.50;;
32469;SDS011;18925;48.356;10.864;2022-12-28T02:56:10;17.13;;;9.18;;
32469;SDS011;18925;48.356;10.864;2022-12-28T02:57:10;15.45;;;8.70;;
32469;SDS011;18925;48.356;10.864;2022-12-28T02:58:17;27.83;;;8.27;;
32469;SDS011;18925;48.356;10.864;2022-12-28T03:00:32;12.75;;;8.68;;
32469;SDS011;18925;48.356;10.864;2022-12-28T03:02:19;14.77;;;7.50;;
32469;SDS011;18925;48.356;10.864;2022-12-28T03:03:09;10.90;;;7.30;;
32469;SDS011;18925;48.356;10.864;2022-12-28T03:05:07;15.20;;;8.48;;
32469;SDS011;18925;48.356;10.864;2022-12-28T03:07:57;13.20;;;8.13;;
32469;SDS011;18925;48.356;10.864;2022-12-28T03:09:03;11.35;;;7.72;;
32469;SDS011;18925;48.356;10.864;2022-12-28T03:11:01;13.70;;;7.90;;
32469;SDS011;18925;48.356;10.864;2022-12-28T03:11:57;14.18;;;7.68;;
32469;SDS011;18925;48.356;10.864;2022-12-28T03:12:55;13.45;;;7.97;;
32469;SDS011;18925;48.356;10.864;2022-12-28T03:14:05;15.73;;;7.03;;
32469;SDS011;18925;48.356;10.864;2022-12-28T03:14:41;11.77;;;7.80;;
32469;SDS011;18925;48.356;10.864;2022-12-28T03:15:18;9.65;;;6.82;;
32469;SDS011;18925;48.356;10.864;2022-12-28T03:16:01;16.17;;;8.48;;
32469;SDS011;18925;48.356;10.864;2022-12-28T03:16:36;12.60;;;7.72;;
32469;SDS011;18925;48.356;10.864;2022-12-28T03:17:28;13.02;;;7.72;;
32469;SDS011;18925;48.356;10.864;2022-12-28T03:18:19;10.82;;;7.45;;
32469;SDS011;18925;48.356;10.864;2022-12-28T03:20:00;10.65;;;7.00;;
32469;SDS011;18925;48.356;10.864;2022-12-28T03:20:57;12.75;;;6.80;;
32469;SDS011;18925;48.356;10.864;2022-12-28T03:21:53;11.68;;;6.80;;
32469;SDS011;18925;48.356;10.864;2022-12-28T03:22:45;10.93;;;6.72;;
32469;SDS011;18925;48.356;10.864;2022-12-28T03:23:35;15.07;;;6.82;;
32469;SDS011;18925;48.356;10.864;2022-12-28T03:24:28;11.45;;;7.15;;
32469;SDS011;18925;48.356;10.864;2022-12-28T03:25:20;11.15;;;6.80;;
32469;SDS011;18925;48.356;10.864;2022-12-28T03:26:12;13.88;;;6.72;;
32469;SDS011;18925;48.356;10.864;2022-12-28T03:27:04;10.27;;;6.75;;
32469;SDS011;18925;48.356;10.864;2022-12-28T03:27:57;13.43;;;7.25;;
32469;SDS011;18925;48.356;10.864;2022-12-28T03:28:48;11.90;;;6.35;;
32469;SDS011;18925;48.356;10.864;2022-12-28T03:29:39;12.70;;;6.47;;
32469;SDS011;18925;48.356;10.864;2022-12-28T03:30:35;11.13;;;6.50;;
32469;SDS011;18925;48.356;10.864;2022-12-28T03:31:28;10.63;;;6.13;;
32469;SDS011;18925;48.356;10.864;2022-12-28T03:32:01;9.00;;;6.45;;
32469;SDS011;18925;48.356;10.864;2022-12-28T03:32:32;8.40;;;6.20;;
32469;SDS011;18925;48.356;10.864;2022-12-28T03:33:03;11.13;;;6.78;;
32469;SDS011;18925;48.356;10.864;2022-12-28T03:33:35;9.20;;;6.25;;
32469;SDS011;18925;48.356;10.864;2022-12-28T03:34:09;9.82;;;6.20;;
32469;SDS011;18925;48.356;10.864;2022-12-28T03:34:40;10.63;;;6.57;;
32469;SDS011;18925;48.356;10.864;2022-12-28T03:35:11;19.75;;;6.88;;
32469;SDS011;18925;48.356;10.864;2022-12-28T03:35:44;14.50;;;5.97;;
32469;SDS011;18925;48.356;10.864;2022-12-28T03:36:23;13.18;;;6.63;;
32469;SDS011;18925;48.356;10.864;2022-12-28T03:36:57;10.75;;;6.35;;
32469;SDS011;18925;48.356;10.864;2022-12-28T03:37:46;9.02;;;6.25;;
32469;SDS011;18925;48.356;10.864;2022-12-28T03:38:23;16.35;;;6.45;;
32469;SDS011;18925;48.356;10.864;2022-12-28T03:39:35;14.35;;;6.20;;
32469;SDS011;18925;48.356;10.864;2022-12-28T03:40:21;10.02;;;6.32;;
32469;SDS011;18925;48.356;10.864;2022-12-28T03:41:12;11.50;;;6.35;;
32469;SDS011;18925;48.356;10.864;2022-12-28T03:41:54;9.30;;;6.07;;
32469;SDS011;18925;48.356;10.864;2022-12-28T03:43:06;8.82;;;5.68;;
32469;SDS011;18925;48.356;10.864;2022-12-28T03:44:04;9.88;;;6.20;;
32469;SDS011;18925;48.356;10.864;2022-12-28T03:44:44;7.57;;;5.60;;
32469;SDS011;18925;48.356;10.864;2022-12-28T03:45:24;8.10;;;5.50;;
32469;SDS011;18925;48.356;10.864;2022-12-28T03:46:59;13.57;;;6.82;;
32469;SDS011;18925;48.356;10.864;2022-12-28T03:47:38;10.02;;;5.82;;
32469;SDS011;18925;48.356;10.864;2022-12-28T03:48:11;9.77;;;6.40;;
32469;SDS011;18925;48.356;10.864;2022-12-28T03:48:44;9.38;;;6.40;;
32469;SDS011;18925;48.356;10.864;2022-12-28T03:49:16;12.50;;;6.82;;
32469;SDS011;18925;48.356;10.864;2022-12-28T03:49:47;11.70;;;6.68;;